Oakville, Connecticut
Current Conditions -  °F | °C
As of 5:45 AM on Sunday 23 Nov 2014 (Local Time) from KOXC Reporting Station
Overcast Overcast  
Wind Chill: 35°   Ceiling: 9000
Heat Index: 39°   Visibility: 10mi
Dew Point: 19°   Wind: 6mph
Humidity: 45%   Direction: 250°WSW
Pressure: 30.14"   Gusts: NA
Location:  41.59°N, 73.08°W
Report Text: KOXC 231045Z 25005KT 10SM SCT060 OVC090 04/M07 A3014
Loading
Personal Weather Stations






























Interactive Weather Map New forecast layout! Learn more

10-Day Weather Forecast

Advertisements
Track Severe Weather on mobile